Time;durP1;ratioP1;P1;durP2;ratioP2;P2;SDS_P1;SDS_P2;PMS_P1;PMS_P2;Temp;Humidity;BMP_temperature;BMP_pressure;BME280_temperature;BME280_humidity;BME280_pressure;Samples;Min_cycle;Max_cycle;Signal;HPM_P1;HPM_P2
2022/01/14 00:02:08;;;;;;;13.45;2.72;;;3.10;99.90;;;;;;5053496;28;20380;-86
2022/01/14 00:04:37;;;;;;;13.45;2.42;;;3.10;99.90;;;;;;5087016;28;20920;-84
2022/01/14 00:07:05;;;;;;;11.40;2.60;;;3.10;99.90;;;;;;5072027;28;20431;-85
2022/01/14 00:09:35;;;;;;;13.23;2.30;;;3.10;99.90;;;;;;5072017;28;20382;-85
2022/01/14 00:12:04;;;;;;;15.02;2.40;;;3.10;99.90;;;;;;5071910;28;20530;-84
2022/01/14 00:17:13;;;;;;;11.98;2.33;;;3.10;99.90;;;;;;5072705;28;20414;-86
2022/01/14 00:19:43;;;;;;;11.80;2.30;;;3.10;99.90;;;;;;5072940;28;20393;-86
2022/01/14 00:22:15;;;;;;;12.73;2.75;;;3.10;99.90;;;;;;5053153;28;20398;-86
2022/01/14 00:35:27;;;;;;;11.55;2.22;;;3.10;99.90;;;;;;5067749;28;20391;-85
2022/01/14 00:37:55;;;;;;;12.25;2.40;;;3.10;99.90;;;;;;5051064;28;20454;-86
2022/01/14 00:40:22;;;;;;;9.63;2.17;;;3.00;99.90;;;;;;5052524;28;20441;-86
2022/01/14 00:42:51;;;;;;;11.27;2.53;;;3.00;99.90;;;;;;5051287;28;20388;-85
2022/01/14 00:45:18;;;;;;;9.30;2.20;;;3.10;99.90;;;;;;5034645;28;20431;-85
2022/01/14 00:47:48;;;;;;;13.20;2.30;;;3.10;99.90;;;;;;5051014;28;20387;-86
2022/01/14 00:50:18;;;;;;;11.18;2.33;;;3.10;99.90;;;;;;5034455;28;20750;-84
2022/01/14 00:52:46;;;;;;;13.32;2.15;;;3.10;99.90;;;;;;5051050;28;20437;-85
2022/01/14 00:55:18;;;;;;;8.70;2.07;;;3.10;99.90;;;;;;5050967;28;20692;-83
2022/01/14 01:00:28;;;;;;;9.07;2.17;;;3.00;99.90;;;;;;5052177;28;20410;-86
2022/01/14 01:02:56;;;;;;;12.37;2.03;;;3.00;99.90;;;;;;5050919;28;20422;-85
2022/01/14 01:05:24;;;;;;;11.40;2.28;;;3.00;99.90;;;;;;5034279;28;20487;-86
2022/01/14 01:08:20;;;;;;;13.18;2.53;;;3.00;99.90;;;;;;5050693;28;20404;-86
2022/01/14 01:10:47;;;;;;;13.50;2.65;;;3.00;99.90;;;;;;5050721;28;20448;-86
2022/01/14 01:13:31;;;;;;;11.53;2.50;;;3.00;99.90;;;;;;5050915;28;20446;-86
2022/01/14 01:15:59;;;;;;;11.52;2.60;;;3.00;99.90;;;;;;5050795;28;20399;-85
2022/01/14 01:18:27;;;;;;;11.93;2.53;;;3.00;99.90;;;;;;5050920;28;20403;-85
2022/01/14 01:20:55;;;;;;;13.40;2.10;;;3.00;99.90;;;;;;5050616;28;20766;-85
2022/01/14 01:23:22;;;;;;;11.50;2.13;;;3.00;99.90;;;;;;5034155;28;20404;-87
2022/01/14 01:26:11;;;;;;;11.23;1.97;;;3.00;99.90;;;;;;5050681;28;20481;-87
2022/01/14 01:28:55;;;;;;;12.27;2.70;;;3.00;99.90;;;;;;5050035;28;20403;-87
2022/01/14 01:31:36;;;;;;;11.55;2.17;;;3.00;99.90;;;;;;5050737;28;20392;-87
2022/01/14 01:34:09;;;;;;;10.50;2.17;;;3.00;99.90;;;;;;5050582;28;20762;-87
2022/01/14 01:36:38;;;;;;;12.73;2.33;;;3.00;99.90;;;;;;5050473;28;20396;-87
2022/01/14 01:39:10;;;;;;;12.17;1.97;;;3.00;99.90;;;;;;5051439;28;20428;-86
2022/01/14 01:41:39;;;;;;;11.17;2.47;;;2.90;99.90;;;;;;5050620;28;20383;-87
2022/01/14 01:44:07;;;;;;;15.68;2.40;;;2.90;99.90;;;;;;5050424;28;20458;-86
2022/01/14 01:46:40;;;;;;;10.70;1.98;;;3.00;99.90;;;;;;5050599;28;20434;-87
2022/01/14 01:49:10;;;;;;;11.63;2.00;;;3.00;99.90;;;;;;5050245;28;20420;-86
2022/01/14 01:51:39;;;;;;;13.07;1.90;;;3.00;99.90;;;;;;5050095;28;20422;-86
2022/01/14 01:54:07;;;;;;;9.10;1.90;;;2.90;99.90;;;;;;5051513;28;20395;-86
2022/01/14 01:56:34;;;;;;;13.30;2.15;;;3.00;99.90;;;;;;5033780;28;20422;-86
2022/01/14 01:59:02;;;;;;;8.68;1.95;;;2.90;99.90;;;;;;5051227;28;20902;-86
2022/01/14 02:01:30;;;;;;;12.55;1.92;;;2.90;99.90;;;;;;5033574;28;20426;-87
2022/01/14 02:03:58;;;;;;;10.80;2.00;;;2.90;99.90;;;;;;5050063;28;20391;-86
2022/01/14 02:06:25;;;;;;;10.38;1.90;;;3.00;99.90;;;;;;5033597;28;20468;-86
2022/01/14 02:08:53;;;;;;;12.38;1.92;;;3.00;99.90;;;;;;5049865;28;20502;-85
2022/01/14 02:11:20;;;;;;;11.25;2.05;;;3.00;99.90;;;;;;5033406;28;20388;-87
2022/01/14 02:13:50;;;;;;;13.10;2.25;;;2.90;99.90;;;;;;5049958;28;20991;-86
2022/01/14 02:16:33;;;;;;;13.32;2.00;;;2.90;99.90;;;;;;5050037;28;20404;-85
2022/01/14 02:19:24;;;;;;;16.10;2.38;;;3.00;99.90;;;;;;5062894;28;20404;-85
2022/01/14 02:27:14;;;;;;;11.30;2.10;;;3.00;99.90;;;;;;5051193;28;20483;-87
2022/01/14 02:29:42;;;;;;;9.43;1.73;;;3.00;99.90;;;;;;5066347;28;20882;-86
2022/01/14 02:32:10;;;;;;;9.85;1.70;;;3.00;99.90;;;;;;5066370;28;20395;-86
2022/01/14 02:34:38;;;;;;;8.98;1.95;;;2.90;99.90;;;;;;5066502;28;20391;-86
2022/01/14 02:37:06;;;;;;;10.15;1.83;;;2.90;99.90;;;;;;5066215;28;20798;-86
2022/01/14 02:39:34;;;;;;;8.67;2.10;;;2.90;99.90;;;;;;5067701;28;20407;-87
2022/01/14 02:42:02;;;;;;;11.40;2.50;;;2.90;99.90;;;;;;5069978;28;20908;-86
2022/01/14 02:44:32;;;;;;;10.68;1.90;;;2.90;99.90;;;;;;5070011;28;20410;-86
2022/01/14 02:47:05;;;;;;;10.20;1.92;;;2.90;99.90;;;;;;5376519;22;20396;-85
2022/01/14 02:49:36;;;;;;;9.98;2.30;;;2.90;99.90;;;;;;5037072;28;20429;-85
2022/01/14 02:52:07;;;;;;;11.65;2.10;;;2.90;99.90;;;;;;5052220;28;20431;-86
2022/01/14 02:55:02;;;;;;;13.52;2.03;;;2.80;99.90;;;;;;5056509;28;20414;-85
2022/01/14 02:57:31;;;;;;;8.27;1.77;;;2.80;99.90;;;;;;5056428;28;20386;-86
2022/01/14 02:59:59;;;;;;;8.75;1.80;;;2.80;99.90;;;;;;5027675;28;20769;-86
2022/01/14 03:02:29;;;;;;;11.60;2.00;;;2.80;99.90;;;;;;5058529;28;20416;-85
2022/01/14 03:04:58;;;;;;;10.77;2.00;;;2.80;99.90;;;;;;5054197;28;20412;-85
2022/01/14 03:07:25;;;;;;;11.88;1.83;;;2.80;99.90;;;;;;5054083;28;20445;-85
2022/01/14 03:09:53;;;;;;;11.15;2.10;;;2.80;99.90;;;;;;5037874;28;22208;-85
2022/01/14 03:12:21;;;;;;;10.35;2.10;;;2.80;99.90;;;;;;5056397;28;20891;-86
2022/01/14 03:14:48;;;;;;;11.05;1.88;;;2.80;99.90;;;;;;5056004;28;20451;-85
2022/01/14 03:17:16;;;;;;;11.88;2.28;;;2.80;99.90;;;;;;5074144;28;20452;-85
2022/01/14 03:19:45;;;;;;;12.90;2.20;;;2.80;99.90;;;;;;5039381;28;20409;-85
2022/01/14 03:27:20;;;;;;;9.32;1.80;;;2.80;99.90;;;;;;5055750;28;20425;-85
2022/01/14 03:29:47;;;;;;;10.47;1.90;;;2.70;99.90;;;;;;5056170;28;20876;-86
2022/01/14 03:32:15;;;;;;;10.98;1.70;;;2.80;99.90;;;;;;5039382;28;20382;-86
2022/01/14 03:34:43;;;;;;;7.30;1.70;;;2.70;99.90;;;;;;5055757;28;20719;-86
2022/01/14 03:37:10;;;;;;;9.32;2.10;;;2.80;99.90;;;;;;5055698;28;20386;-86
2022/01/14 03:39:38;;;;;;;10.93;1.85;;;2.70;99.90;;;;;;5045810;28;20407;-86
2022/01/14 03:42:06;;;;;;;11.23;2.58;;;2.70;99.90;;;;;;5028266;28;20505;-86
2022/01/14 03:44:34;;;;;;;12.13;2.40;;;2.70;99.90;;;;;;5034780;28;20407;-86
2022/01/14 03:47:01;;;;;;;11.95;2.10;;;2.60;99.90;;;;;;5051056;28;21210;-85
2022/01/14 03:49:29;;;;;;;9.93;1.70;;;2.70;99.90;;;;;;5035721;28;20435;-86
2022/01/14 03:51:56;;;;;;;9.30;1.40;;;2.70;99.90;;;;;;5048468;28;20426;-86
2022/01/14 03:54:24;;;;;;;9.35;1.92;;;2.60;99.90;;;;;;5051983;28;20391;-86
2022/01/14 03:56:52;;;;;;;10.13;1.63;;;2.60;99.90;;;;;;5055578;28;20475;-86
2022/01/14 03:59:20;;;;;;;11.77;1.63;;;2.60;99.90;;;;;;5050886;28;20412;-86
2022/01/14 04:01:47;;;;;;;6.55;1.27;;;2.60;99.90;;;;;;5027212;28;20873;-85
2022/01/14 04:04:15;;;;;;;7.23;1.20;;;2.60;99.90;;;;;;5052391;28;20445;-86
2022/01/14 04:06:42;;;;;;;11.20;1.70;;;2.60;99.90;;;;;;5055291;28;20419;-85
2022/01/14 04:09:10;;;;;;;12.07;1.90;;;2.60;99.90;;;;;;5054993;28;20814;-86
2022/01/14 04:11:38;;;;;;;7.13;1.43;;;2.60;99.90;;;;;;5038399;28;20397;-86
2022/01/14 04:15:36;;;;;;;6.55;1.20;;;2.60;99.90;;;;;;5030077;28;20406;-85
2022/01/14 04:16:57;;;;;;;7.00;1.17;;;2.60;99.90;;;;;;5064842;28;20394;-86
2022/01/14 04:19:29;;;;;;;7.60;1.30;;;2.60;99.90;;;;;;5069376;28;20498;-86
2022/01/14 04:21:56;;;;;;;7.13;1.20;;;2.60;99.90;;;;;;5052947;28;20403;-86
2022/01/14 04:24:24;;;;;;;4.88;0.93;;;2.60;99.90;;;;;;5018803;28;20475;-86
2022/01/14 04:26:51;;;;;;;7.00;0.98;;;2.60;99.90;;;;;;5045389;28;20386;-86
2022/01/14 04:29:19;;;;;;;5.70;0.98;;;2.60;99.90;;;;;;5038373;28;21034;-85
2022/01/14 04:31:47;;;;;;;6.45;1.02;;;2.60;99.90;;;;;;5038230;28;20386;-85
2022/01/14 04:34:16;;;;;;;4.75;1.10;;;2.60;99.90;;;;;;5038316;28;20417;-86
2022/01/14 04:36:43;;;;;;;5.28;0.90;;;2.60;99.90;;;;;;5019451;28;20400;-86
2022/01/14 04:39:11;;;;;;;6.63;1.20;;;2.60;99.90;;;;;;5034943;28;20400;-86
2022/01/14 04:41:39;;;;;;;3.42;0.80;;;2.60;99.90;;;;;;5034656;28;20403;-85
2022/01/14 04:44:06;;;;;;;3.60;0.60;;;2.60;99.90;;;;;;5018463;28;20789;-86
2022/01/14 04:49:07;;;;;;;5.10;0.80;;;2.60;99.90;;;;;;5054676;28;20868;-85
2022/01/14 04:51:37;;;;;;;4.18;0.82;;;2.60;99.90;;;;;;5054538;28;20386;-86
2022/01/14 04:54:04;;;;;;;3.00;0.80;;;2.60;99.90;;;;;;5050285;28;20499;-85
2022/01/14 04:56:33;;;;;;;2.83;0.40;;;2.60;99.90;;;;;;5033822;28;20501;-86
2022/01/14 04:59:00;;;;;;;4.57;0.80;;;2.60;99.90;;;;;;5054329;28;20406;-85
2022/01/14 05:01:29;;;;;;;2.78;0.50;;;2.60;99.90;;;;;;5064076;28;20461;-86
2022/01/14 05:03:58;;;;;;;2.75;0.60;;;2.60;99.90;;;;;;5031141;28;20399;-86
2022/01/14 05:06:26;;;;;;;2.92;0.68;;;2.50;99.90;;;;;;5044895;28;20386;-85
2022/01/14 05:08:55;;;;;;;3.08;0.50;;;2.50;99.90;;;;;;5071393;28;20444;-85
2022/01/14 05:11:29;;;;;;;6.57;2.70;;;2.50;99.90;;;;;;5054471;28;20501;-85
2022/01/14 05:13:57;;;;;;;1.30;0.40;;;2.50;99.90;;;;;;5037733;28;20417;-86
2022/01/14 05:16:24;;;;;;;2.55;0.50;;;2.40;99.90;;;;;;5049811;28;20407;-86
2022/01/14 05:18:52;;;;;;;1.95;0.50;;;2.40;99.90;;;;;;5034180;28;20504;-87
2022/01/14 05:21:20;;;;;;;2.33;0.40;;;2.40;99.90;;;;;;5017921;28;20387;-86
2022/01/14 05:23:47;;;;;;;1.55;0.50;;;2.40;99.90;;;;;;5033879;28;20909;-86
2022/01/14 05:26:15;;;;;;;2.50;0.50;;;2.40;99.90;;;;;;5044299;28;20893;-86
2022/01/14 05:28:42;;;;;;;2.67;0.52;;;2.40;99.90;;;;;;5034189;28;20393;-85
2022/01/14 05:31:10;;;;;;;2.40;0.40;;;2.40;99.90;;;;;;5041164;28;20837;-86
2022/01/14 05:33:41;;;;;;;2.15;0.40;;;2.40;99.90;;;;;;5021005;28;20870;-86
2022/01/14 05:36:08;;;;;;;2.37;0.80;;;2.40;99.90;;;;;;5051780;28;20390;-86
2022/01/14 05:38:36;;;;;;;1.90;0.30;;;2.40;99.90;;;;;;5034002;28;20487;-85
2022/01/14 05:41:03;;;;;;;1.92;0.30;;;2.40;99.90;;;;;;5033959;28;20487;-86
2022/01/14 05:43:31;;;;;;;2.20;0.40;;;2.40;99.90;;;;;;5070267;28;20752;-86
2022/01/14 05:45:58;;;;;;;2.10;0.50;;;2.30;99.90;;;;;;5071675;28;20385;-86
2022/01/14 05:48:26;;;;;;;1.13;0.32;;;2.30;99.90;;;;;;5050196;28;20392;-86
2022/01/14 05:50:55;;;;;;;2.25;0.40;;;2.30;99.90;;;;;;5050450;28;20398;-86
2022/01/14 05:53:22;;;;;;;2.35;0.40;;;2.30;99.90;;;;;;5051584;28;20548;-86
2022/01/14 05:55:49;;;;;;;1.37;0.40;;;2.30;99.90;;;;;;5050300;28;20418;-85
2022/01/14 05:58:17;;;;;;;1.00;0.38;;;2.30;99.90;;;;;;5050136;28;20471;-86
2022/01/14 06:00:44;;;;;;;0.75;0.30;;;2.30;99.90;;;;;;5051430;28;20388;-86
2022/01/14 06:03:12;;;;;;;0.40;0.20;;;2.30;99.90;;;;;;5033740;28;20442;-86
2022/01/14 06:05:40;;;;;;;1.00;0.30;;;2.30;99.90;;;;;;5048365;28;20460;-87
2022/01/14 06:08:07;;;;;;;0.73;0.30;;;2.30;99.90;;;;;;5026427;28;20416;-87
2022/01/14 06:10:35;;;;;;;0.93;0.20;;;2.20;99.90;;;;;;5029690;28;20736;-86
2022/01/14 06:13:02;;;;;;;0.60;0.30;;;2.20;99.90;;;;;;5029701;28;20451;-87
2022/01/14 06:15:31;;;;;;;0.85;0.20;;;2.20;99.90;;;;;;5033538;28;20488;-86
2022/01/14 06:17:58;;;;;;;0.50;0.20;;;2.30;99.90;;;;;;5033991;28;20389;-86
2022/01/14 06:20:26;;;;;;;0.77;0.30;;;2.30;99.90;;;;;;5024358;28;20402;-86
2022/01/14 06:22:54;;;;;;;1.38;0.30;;;2.30;99.90;;;;;;5034647;28;20451;-85
2022/01/14 06:25:21;;;;;;;1.15;0.20;;;2.30;99.90;;;;;;5052295;28;20951;-85
2022/01/14 06:27:49;;;;;;;1.00;0.20;;;2.20;99.90;;;;;;5054667;28;20434;-86
2022/01/14 06:30:21;;;;;;;0.82;0.20;;;2.20;99.90;;;;;;5053447;28;20473;-85
2022/01/14 06:32:52;;;;;;;0.35;0.20;;;2.20;99.90;;;;;;5050188;28;20399;-85
2022/01/14 06:35:20;;;;;;;1.17;0.30;;;2.30;99.90;;;;;;5037075;28;20403;-85
2022/01/14 06:37:47;;;;;;;1.08;0.30;;;2.30;99.90;;;;;;5037368;28;20395;-86
2022/01/14 06:40:15;;;;;;;0.63;0.22;;;2.20;99.90;;;;;;5036910;28;20415;-85
2022/01/14 06:42:49;;;;;;;0.57;0.20;;;2.30;99.90;;;;;;5053621;28;20905;-85
2022/01/14 06:45:18;;;;;;;0.30;0.20;;;2.30;99.90;;;;;;5037043;28;20399;-85
2022/01/14 06:47:47;;;;;;;0.60;0.20;;;2.30;99.90;;;;;;5063191;28;20752;-85
2022/01/14 06:50:17;;;;;;;0.30;0.20;;;2.20;99.90;;;;;;5040566;28;20485;-86
2022/01/14 06:52:44;;;;;;;1.70;0.15;;;2.20;99.90;;;;;;5040170;28;20405;-85
2022/01/14 06:55:12;;;;;;;0.80;0.20;;;2.20;99.90;;;;;;5040047;28;20778;-84
2022/01/14 06:57:40;;;;;;;0.20;0.10;;;2.10;99.90;;;;;;5056661;28;20836;-86
2022/01/14 07:00:11;;;;;;;0.20;0.10;;;2.10;99.90;;;;;;5040068;28;20402;-85
2022/01/14 07:02:40;;;;;;;1.20;0.20;;;2.10;99.90;;;;;;5060597;28;20442;-85
2022/01/14 07:05:08;;;;;;;1.70;0.20;;;2.10;99.90;;;;;;5036793;28;20388;-85
2022/01/14 07:07:37;;;;;;;0.28;0.10;;;2.10;99.90;;;;;;5056827;28;20456;-86
2022/01/14 07:10:06;;;;;;;0.43;0.20;;;2.10;99.90;;;;;;5048390;28;20400;-85
2022/01/14 07:12:40;;;;;;;0.25;0.20;;;2.10;99.90;;;;;;5041021;28;20406;-86
2022/01/14 07:15:11;;;;;;;0.40;0.20;;;2.10;99.90;;;;;;5050551;28;20407;-86
2022/01/14 07:17:40;;;;;;;0.22;0.20;;;2.10;99.90;;;;;;5036659;28;20395;-85
2022/01/14 07:20:12;;;;;;;0.70;0.20;;;2.00;99.90;;;;;;5056176;28;20529;-86
2022/01/14 07:22:41;;;;;;;0.17;0.10;;;2.00;99.90;;;;;;5056214;28;20817;-85
2022/01/14 07:25:09;;;;;;;0.30;0.20;;;2.00;99.90;;;;;;5055798;28;20389;-86
2022/01/14 07:27:37;;;;;;;0.30;0.10;;;2.00;99.90;;;;;;5056088;28;20669;-83
2022/01/14 07:30:06;;;;;;;0.43;0.15;;;2.00;99.90;;;;;;5056500;28;20397;-85
2022/01/14 07:32:33;;;;;;;0.70;0.20;;;2.00;99.90;;;;;;5055967;28;20397;-85
2022/01/14 07:35:02;;;;;;;1.15;0.20;;;2.00;99.90;;;;;;5039641;28;20398;-86
2022/01/14 07:37:30;;;;;;;0.82;0.20;;;1.90;99.90;;;;;;5056173;28;20386;-86
2022/01/14 07:39:57;;;;;;;0.28;0.20;;;1.90;99.90;;;;;;5055852;28;20398;-86
2022/01/14 07:42:25;;;;;;;1.20;0.20;;;1.90;99.90;;;;;;5039345;28;20501;-85
2022/01/14 07:44:53;;;;;;;0.80;0.20;;;1.90;99.90;;;;;;5073706;28;20384;-85
2022/01/14 07:47:20;;;;;;;1.50;0.30;;;1.90;99.90;;;;;;5054562;28;20430;-84
2022/01/14 07:49:48;;;;;;;2.50;0.30;;;1.90;99.90;;;;;;5066815;28;20990;-85
2022/01/14 07:52:16;;;;;;;0.82;0.20;;;1.90;99.90;;;;;;5055542;28;20393;-84
2022/01/14 07:54:44;;;;;;;0.73;0.30;;;1.90;99.90;;;;;;5055420;28;20397;-85
2022/01/14 07:57:12;;;;;;;1.17;0.10;;;1.90;99.90;;;;;;5055470;28;20386;-84
2022/01/14 07:59:40;;;;;;;0.43;0.17;;;1.90;99.90;;;;;;5039014;28;20487;-84
2022/01/14 08:02:08;;;;;;;1.20;0.20;;;1.90;99.90;;;;;;5055689;28;20457;-85
2022/01/14 08:04:37;;;;;;;1.50;0.20;;;1.90;99.90;;;;;;5055415;28;20390;-85
2022/01/14 08:07:11;;;;;;;0.60;0.20;;;1.90;99.90;;;;;;5055274;28;20390;-85
2022/01/14 08:09:42;;;;;;;2.00;0.30;;;1.80;99.90;;;;;;5055465;28;20394;-85
2022/01/14 08:12:12;;;;;;;0.40;0.20;;;1.80;99.90;;;;;;5038833;28;20394;-85
2022/01/14 08:14:40;;;;;;;0.63;0.30;;;1.80;99.90;;;;;;5055086;28;20398;-85
2022/01/14 08:17:08;;;;;;;1.05;0.20;;;1.80;99.90;;;;;;5073017;28;20451;-85
2022/01/14 08:19:36;;;;;;;0.47;0.20;;;1.80;99.90;;;;;;5054879;28;20393;-85
2022/01/14 08:22:06;;;;;;;0.95;0.13;;;1.70;99.90;;;;;;5054516;28;20405;-84
2022/01/14 08:24:34;;;;;;;0.30;0.20;;;1.70;99.90;;;;;;5037639;28;20805;-85
2022/01/14 08:27:05;;;;;;;1.48;0.20;;;1.70;99.90;;;;;;5038780;28;20406;-85
2022/01/14 08:29:33;;;;;;;2.00;0.30;;;1.60;99.90;;;;;;5054892;28;20398;-85
2022/01/14 08:32:01;;;;;;;1.10;0.20;;;1.60;99.90;;;;;;5054543;28;20394;-84
2022/01/14 08:34:28;;;;;;;1.20;0.20;;;1.60;99.90;;;;;;5054617;28;20390;-85
2022/01/14 08:36:56;;;;;;;0.60;0.20;;;1.70;99.90;;;;;;5051296;28;20392;-84
2022/01/14 08:39:24;;;;;;;1.35;0.30;;;1.60;99.90;;;;;;5042064;28;20922;-85
2022/01/14 08:41:51;;;;;;;1.10;0.20;;;1.50;99.90;;;;;;5054800;28;20382;-85
2022/01/14 08:44:19;;;;;;;1.73;0.22;;;1.40;99.90;;;;;;5038371;28;20883;-86
2022/01/14 08:46:51;;;;;;;1.10;0.20;;;1.40;99.90;;;;;;5054779;28;20387;-86
2022/01/14 08:49:19;;;;;;;0.95;0.20;;;1.30;99.90;;;;;;5055066;28;20664;-86
2022/01/14 08:51:49;;;;;;;0.90;0.30;;;1.20;99.90;;;;;;5038246;28;20420;-86
2022/01/14 08:54:17;;;;;;;0.70;0.20;;;1.20;99.90;;;;;;5038266;28;20401;-86
2022/01/14 08:56:45;;;;;;;2.08;0.30;;;1.20;99.90;;;;;;5037993;28;20781;-86
2022/01/14 08:59:16;;;;;;;1.83;0.30;;;1.10;99.90;;;;;;5072348;28;20382;-85
2022/01/14 09:01:44;;;;;;;2.00;0.40;;;1.00;99.90;;;;;;5037966;28;20481;-86
2022/01/14 09:04:12;;;;;;;2.08;0.30;;;1.00;99.90;;;;;;5037839;28;20970;-85
2022/01/14 09:06:40;;;;;;;3.35;0.45;;;1.00;99.90;;;;;;5037969;28;20465;-85
2022/01/14 09:09:07;;;;;;;1.65;0.30;;;0.90;99.90;;;;;;5037786;28;20386;-86
2022/01/14 09:11:35;;;;;;;4.57;0.40;;;0.90;99.90;;;;;;5054526;28;20408;-86
2022/01/14 09:14:03;;;;;;;1.67;0.40;;;0.90;99.90;;;;;;5037821;28;20880;-86
2022/01/14 09:16:31;;;;;;;3.10;0.50;;;0.90;99.90;;;;;;5054252;28;20799;-86
2022/01/14 09:18:59;;;;;;;1.30;0.30;;;0.80;99.90;;;;;;5054150;28;20418;-85
2022/01/14 09:21:26;;;;;;;2.00;0.30;;;0.80;99.90;;;;;;5054216;28;20867;-87
2022/01/14 09:24:03;;;;;;;1.77;0.20;;;0.80;99.90;;;;;;5054159;28;20420;-86
2022/01/14 09:26:33;;;;;;;3.55;0.40;;;0.70;99.90;;;;;;5072174;28;20393;-86
2022/01/14 09:29:02;;;;;;;2.70;0.30;;;0.80;99.90;;;;;;5054440;28;20381;-86
2022/01/14 09:31:30;;;;;;;1.77;0.20;;;0.70;99.90;;;;;;5037641;28;20872;-86
2022/01/14 09:33:58;;;;;;;2.45;0.40;;;0.80;99.90;;;;;;5038046;28;20390;-87
2022/01/14 09:36:27;;;;;;;2.30;0.50;;;0.70;99.90;;;;;;5052296;28;20437;-86
2022/01/14 09:38:56;;;;;;;3.72;0.50;;;0.70;99.90;;;;;;5053788;28;20477;-85
2022/01/14 09:41:24;;;;;;;3.80;0.70;;;0.70;99.90;;;;;;5053218;28;20989;-85
2022/01/14 09:43:52;;;;;;;3.40;0.50;;;0.70;99.90;;;;;;5053545;28;20414;-85
2022/01/14 09:46:19;;;;;;;2.90;0.50;;;0.70;99.90;;;;;;5053471;28;20389;-85
2022/01/14 09:48:50;;;;;;;1.50;0.50;;;0.70;99.90;;;;;;5070905;28;20390;-86
2022/01/14 09:51:17;;;;;;;4.82;0.60;;;0.70;99.90;;;;;;5053510;28;20398;-85
2022/01/14 09:54:17;;;;;;;3.03;0.60;;;0.70;99.90;;;;;;5053369;28;20389;-85
2022/01/14 09:56:45;;;;;;;4.15;0.60;;;0.70;99.90;;;;;;5071376;28;20394;-85
2022/01/14 09:59:12;;;;;;;4.35;0.60;;;0.70;99.90;;;;;;5053434;28;20418;-85
2022/01/14 10:01:46;;;;;;;4.20;0.90;;;0.70;99.90;;;;;;5071532;28;20460;-85
2022/01/14 10:04:18;;;;;;;4.72;0.90;;;0.60;99.90;;;;;;5071235;28;20377;-85
2022/01/14 10:06:55;;;;;;;4.50;0.80;;;0.60;99.90;;;;;;5054026;28;20786;-86
2022/01/14 10:09:37;;;;;;;5.57;0.85;;;0.60;99.90;;;;;;5050145;28;20404;-85
2022/01/14 10:12:13;;;;;;;3.53;0.63;;;0.50;99.90;;;;;;5037193;28;20477;-85
2022/01/14 10:14:43;;;;;;;2.92;0.60;;;0.50;99.90;;;;;;5053619;28;20422;-86
2022/01/14 10:17:12;;;;;;;4.47;0.65;;;0.60;99.90;;;;;;5053391;28;20422;-85
2022/01/14 10:19:43;;;;;;;6.10;0.85;;;0.50;99.90;;;;;;5053064;28;20439;-85
2022/01/14 10:22:24;;;;;;;4.53;0.63;;;0.50;99.90;;;;;;5053374;28;20455;-86
2022/01/14 10:25:05;;;;;;;5.50;0.70;;;0.50;99.90;;;;;;5053610;28;20440;-86
2022/01/14 10:27:34;;;;;;;5.40;0.85;;;0.60;99.90;;;;;;5053542;28;20398;-85
2022/01/14 10:30:18;;;;;;;4.22;0.77;;;0.60;99.90;;;;;;5053337;28;20482;-85
2022/01/14 10:32:55;;;;;;;6.47;0.90;;;0.50;99.90;;;;;;5053022;28;20402;-85
2022/01/14 10:35:24;;;;;;;3.97;0.70;;;0.50;99.90;;;;;;5033459;28;20453;-85
2022/01/14 10:37:55;;;;;;;3.10;0.50;;;0.50;99.90;;;;;;5019736;28;20450;-85
2022/01/14 10:40:24;;;;;;;5.90;0.75;;;0.50;99.90;;;;;;5053471;28;20497;-86
2022/01/14 10:43:00;;;;;;;4.97;0.80;;;0.50;99.90;;;;;;5071199;28;20449;-85
2022/01/14 10:45:49;;;;;;;4.35;0.70;;;0.50;99.90;;;;;;5053096;28;20489;-86
2022/01/14 10:48:32;;;;;;;5.45;0.80;;;0.50;99.90;;;;;;5053066;28;20469;-85
2022/01/14 10:51:01;;;;;;;5.53;0.90;;;0.40;99.90;;;;;;5048999;28;20404;-85
2022/01/14 10:53:35;;;;;;;6.83;0.80;;;0.40;99.90;;;;;;5030142;28;20840;-85
2022/01/14 10:56:12;;;;;;;6.20;0.70;;;0.40;99.90;;;;;;5041045;28;20388;-85
2022/01/14 10:58:44;;;;;;;5.40;0.80;;;0.40;99.90;;;;;;5033390;28;20396;-85
2022/01/14 11:01:20;;;;;;;5.40;0.90;;;0.50;99.90;;;;;;5034559;28;20407;-85
2022/01/14 11:03:59;;;;;;;6.05;1.00;;;0.40;99.90;;;;;;5053053;28;20819;-85
2022/01/14 11:06:40;;;;;;;5.50;0.70;;;0.40;99.90;;;;;;5053287;28;20388;-85
2022/01/14 11:09:17;;;;;;;5.43;0.60;;;0.40;99.90;;;;;;5053008;28;20434;-84
2022/01/14 11:11:46;;;;;;;7.65;0.93;;;0.40;99.90;;;;;;5052343;28;20411;-84
2022/01/14 11:14:14;;;;;;;7.32;0.88;;;0.40;99.90;;;;;;5062765;28;20480;-84
2022/01/14 11:16:42;;;;;;;5.72;0.70;;;0.40;99.90;;;;;;5053105;28;20391;-85
2022/01/14 11:19:10;;;;;;;7.88;0.90;;;0.40;99.90;;;;;;5036994;28;20402;-86
2022/01/14 11:24:30;;;;;;;5.07;0.93;;;0.30;99.90;;;;;;5041098;28;20885;-84
2022/01/14 11:27:09;;;;;;;4.30;0.98;;;0.40;99.90;;;;;;5036490;28;20400;-85
2022/01/14 11:29:43;;;;;;;5.45;0.80;;;0.30;99.90;;;;;;5036527;28;20478;-85
2022/01/14 11:32:11;;;;;;;5.43;0.70;;;0.30;99.90;;;;;;5036440;28;20396;-84
2022/01/14 11:34:47;;;;;;;3.75;0.63;;;0.30;99.90;;;;;;5019680;28;20400;-85
2022/01/14 11:37:28;;;;;;;4.80;0.67;;;0.30;99.90;;;;;;5063715;28;20444;-85
2022/01/14 11:40:12;;;;;;;3.97;0.73;;;0.40;99.90;;;;;;5055706;28;20394;-85
2022/01/14 11:42:49;;;;;;;7.68;1.00;;;0.40;99.90;;;;;;5056111;28;20475;-85
2022/01/14 11:45:20;;;;;;;5.32;0.82;;;0.40;99.90;;;;;;5059447;28;20402;-85
2022/01/14 11:47:51;;;;;;;3.38;0.75;;;0.40;99.90;;;;;;5038932;28;20912;-84
2022/01/14 11:50:19;;;;;;;9.32;1.10;;;0.40;99.90;;;;;;5045816;28;20528;-86
2022/01/14 11:52:48;;;;;;;4.45;1.10;;;0.40;99.90;;;;;;5035891;28;20391;-85
2022/01/14 11:55:22;;;;;;;6.30;0.90;;;0.40;99.90;;;;;;5035689;28;20479;-86
2022/01/14 11:57:58;;;;;;;4.72;0.90;;;0.40;99.90;;;;;;5041403;28;20394;-84
2022/01/14 12:00:33;;;;;;;6.57;1.00;;;0.30;99.90;;;;;;5038637;28;20417;-86
2022/01/14 12:03:07;;;;;;;5.32;0.90;;;0.30;99.90;;;;;;5055622;28;20405;-85
2022/01/14 12:05:57;;;;;;;4.97;0.82;;;0.30;99.90;;;;;;5055372;28;20425;-85
2022/01/14 12:08:32;;;;;;;6.57;1.00;;;0.30;99.90;;;;;;5026180;28;20830;-85
2022/01/14 12:11:17;;;;;;;4.60;0.70;;;0.30;99.90;;;;;;5038232;28;20766;-86
2022/01/14 12:13:59;;;;;;;5.13;1.00;;;0.30;99.90;;;;;;5025187;28;20877;-85
2022/01/14 12:19:02;;;;;;;4.60;0.90;;;0.30;99.90;;;;;;5051270;28;20394;-84
2022/01/14 12:21:53;;;;;;;6.72;1.05;;;0.30;99.90;;;;;;5055046;28;20398;-84
2022/01/14 12:24:21;;;;;;;6.88;0.90;;;0.20;99.90;;;;;;5029475;28;20490;-83
2022/01/14 12:27:12;;;;;;;6.32;1.00;;;0.20;99.90;;;;;;5035063;28;20792;-84
2022/01/14 12:29:45;;;;;;;7.75;1.20;;;0.20;99.90;;;;;;5031240;28;20406;-84
2022/01/14 12:32:29;;;;;;;7.75;1.10;;;0.20;99.90;;;;;;5055745;28;20669;-85
2022/01/14 12:35:01;;;;;;;6.00;0.80;;;0.20;99.90;;;;;;5044691;28;20408;-85
2022/01/14 12:37:30;;;;;;;4.90;0.97;;;0.20;99.90;;;;;;5048334;28;20864;-84
2022/01/14 12:40:12;;;;;;;8.02;1.20;;;0.20;99.90;;;;;;5034065;28;20394;-84
2022/01/14 12:42:44;;;;;;;4.20;0.82;;;0.20;99.90;;;;;;5072597;28;20895;-86
2022/01/14 12:45:27;;;;;;;6.37;0.80;;;0.20;99.90;;;;;;5055034;28;20393;-85
2022/01/14 12:48:28;;;;;;;6.23;0.80;;;0.20;99.90;;;;;;5054572;28;20385;-85
2022/01/14 12:51:05;;;;;;;4.30;0.95;;;0.20;99.90;;;;;;5054581;28;20403;-85
2022/01/14 12:53:33;;;;;;;4.70;0.80;;;0.20;99.90;;;;;;5038043;28;20447;-85
2022/01/14 12:56:12;;;;;;;6.18;0.70;;;0.30;99.90;;;;;;5054912;28;20390;-87
2022/01/14 12:59:09;;;;;;;6.75;1.02;;;0.20;99.90;;;;;;5054336;28;20398;-84
2022/01/14 13:01:50;;;;;;;6.87;1.10;;;0.20;99.90;;;;;;5054421;28;20699;-86
2022/01/14 13:04:20;;;;;;;6.53;0.98;;;0.20;99.90;;;;;;5038009;28;20390;-85
2022/01/14 13:06:56;;;;;;;5.70;1.30;;;0.20;99.90;;;;;;5054102;28;20465;-84
2022/01/14 13:09:31;;;;;;;3.50;0.70;;;0.20;99.90;;;;;;5037978;28;20474;-85
2022/01/14 13:12:03;;;;;;;7.00;0.93;;;0.20;99.90;;;;;;5072105;28;20503;-84
2022/01/14 13:14:38;;;;;;;7.45;1.17;;;0.20;99.90;;;;;;5054111;28;20449;-87
2022/01/14 13:17:15;;;;;;;5.03;0.90;;;0.20;99.90;;;;;;5034254;28;20399;-84
2022/01/14 13:19:44;;;;;;;5.95;0.88;;;0.20;99.90;;;;;;5034221;28;20893;-84
2022/01/14 13:22:14;;;;;;;5.38;0.88;;;0.20;99.90;;;;;;5054154;28;20455;-86
2022/01/14 13:24:49;;;;;;;4.97;0.80;;;0.20;99.90;;;;;;5071515;28;20375;-85
2022/01/14 13:27:30;;;;;;;10.35;1.10;;;0.20;99.90;;;;;;5037941;28;20408;-85
2022/01/14 13:30:05;;;;;;;7.88;1.08;;;0.10;99.90;;;;;;5054192;28;20385;-87
2022/01/14 13:32:35;;;;;;;8.02;1.50;;;0.10;99.90;;;;;;5037557;28;20398;-85
2022/01/14 13:35:26;;;;;;;6.00;1.00;;;0.10;99.90;;;;;;5071824;28;20433;-85
2022/01/14 13:37:57;;;;;;;4.37;0.80;;;0.10;99.90;;;;;;5053791;28;20760;-85
2022/01/14 13:40:48;;;;;;;4.47;0.82;;;0.10;99.90;;;;;;5052462;28;20440;-84
2022/01/14 13:43:24;;;;;;;7.82;0.90;;;0.10;99.90;;;;;;5052919;28;20491;-84
2022/01/14 13:46:06;;;;;;;6.05;0.90;;;0.00;99.90;;;;;;5071442;28;20473;-85
2022/01/14 13:48:50;;;;;;;5.80;0.77;;;0.00;99.90;;;;;;5052748;28;20855;-84
2022/01/14 13:51:21;;;;;;;4.03;0.52;;;0.00;99.90;;;;;;5053470;28;20572;-84